Time;durP1;ratioP1;P1;durP2;ratioP2;P2;SDS_P1;SDS_P2;PMS_P1;PMS_P2;Temp;Humidity;BMP_temperature;BMP_pressure;BME280_temperature;BME280_humidity;BME280_pressure;Samples;Min_cycle;Max_cycle;Signal;HPM_P1;HPM_P2
2021/12/08 00:03:04;;;;;;;90.27;28.50;;;;;;;-2.16;97.16;98710.58;4044633;86;21336;-85
2021/12/08 00:09:35;;;;;;;89.93;29.77;;;;;;;-2.14;97.27;98697.09;4042282;86;21078;-86
2021/12/08 00:15:10;;;;;;;91.53;32.50;;;;;;;-2.07;97.32;98697.47;4033509;86;21079;-86
2021/12/08 00:21:11;;;;;;;91.07;30.30;;;;;;;-1.98;97.44;98710.45;4042099;86;21657;-85
2021/12/08 00:27:13;;;;;;;84.70;28.95;;;;;;;-1.94;97.43;98712.77;4039544;86;21015;-85
2021/12/08 00:33:16;;;;;;;86.70;29.77;;;;;;;-1.93;97.32;98725.11;4044610;86;21038;-85
2021/12/08 00:39:18;;;;;;;95.30;31.63;;;;;;;-1.92;97.24;98737.41;4052715;86;21607;-85
2021/12/08 00:45:21;;;;;;;92.80;28.90;;;;;;;-1.92;97.21;98728.56;4042195;86;21613;-85
2021/12/08 00:51:22;;;;;;;89.27;29.20;;;;;;;-1.89;97.41;98719.38;4047509;86;22365;-85
2021/12/08 00:57:24;;;;;;;70.97;24.57;;;;;;;-1.83;97.29;98725.41;4055297;86;21123;-86
2021/12/08 01:03:26;;;;;;;64.20;23.30;;;;;;;-1.87;97.16;98723.09;4065930;86;21067;-84
2021/12/08 01:09:27;;;;;;;59.87;21.20;;;;;;;-1.88;97.10;98717.50;4059950;86;21508;-86
2021/12/08 01:15:29;;;;;;;65.53;22.17;;;;;;;-1.89;97.07;98727.42;4061210;86;21111;-87
2021/12/08 01:21:31;;;;;;;73.00;23.57;;;;;;;-1.86;96.99;98708.58;4059060;86;21067;-85
2021/12/08 01:27:34;;;;;;;65.60;21.17;;;;;;;-1.85;97.02;98704.82;4057562;86;21099;-85
2021/12/08 01:33:36;;;;;;;60.73;21.60;;;;;;;-1.84;96.95;98715.25;4068666;86;21078;-85
2021/12/08 01:39:38;;;;;;;70.03;24.67;;;;;;;-1.84;96.83;98721.95;4069796;86;21097;-85
2021/12/08 01:45:59;;;;;;;60.40;20.67;;;;;;;-1.80;96.89;98730.17;4076978;86;21587;-85
2021/12/08 01:52:00;;;;;;;72.17;24.10;;;;;;;-1.81;96.88;98720.02;4063322;86;21051;-84
2021/12/08 01:58:03;;;;;;;78.97;22.97;;;;;;;-1.96;96.82;98715.52;4021955;87;21608;-85
2021/12/08 02:04:08;;;;;;;70.73;24.13;;;;;;;-1.99;96.70;98698.69;4000873;87;21024;-86
2021/12/08 02:10:11;;;;;;;78.10;24.67;;;;;;;-2.01;96.74;98700.33;4011257;87;21243;-88
2021/12/08 02:16:16;;;;;;;69.67;24.20;;;;;;;-2.04;96.75;98688.86;4008725;87;21065;-87
2021/12/08 02:22:17;;;;;;;80.40;25.67;;;;;;;-2.01;96.95;98676.19;4020467;87;21624;-85
2021/12/08 02:28:19;;;;;;;90.30;27.20;;;;;;;-2.05;96.86;98671.16;4000119;86;21081;-84
2021/12/08 02:47:18;;;;;;;84.50;27.70;;;;;;;-2.13;96.95;98653.66;3997625;87;21057;-86
2021/12/08 02:53:16;;;;;;;90.27;26.50;;;;;;;-2.14;96.87;98660.89;4016542;86;21140;-85
2021/12/08 02:59:18;;;;;;;81.47;25.90;;;;;;;-2.18;96.96;98649.73;4049427;86;21728;-85
2021/12/08 03:05:20;;;;;;;87.47;27.87;;;;;;;-2.23;97.01;98649.83;3905808;90;21135;-85
2021/12/08 03:11:21;;;;;;;82.80;25.53;;;;;;;-2.25;96.93;98633.24;4040252;86;21072;-85
2021/12/08 03:17:23;;;;;;;77.37;25.90;;;;;;;-2.27;97.05;98620.70;4034794;86;21120;-86
2021/12/08 03:23:32;;;;;;;81.63;24.60;;;;;;;-2.39;96.99;98617.19;4038380;86;21147;-86
2021/12/08 03:29:37;;;;;;;80.50;26.17;;;;;;;-2.41;97.10;98624.72;4037735;86;21552;-87
2021/12/08 03:35:34;;;;;;;82.53;25.10;;;;;;;-2.43;97.22;98625.59;4046643;85;21052;-85
2021/12/08 03:41:36;;;;;;;83.23;26.17;;;;;;;-2.47;97.32;98621.10;4046271;86;21039;-88
2021/12/08 03:47:42;;;;;;;82.37;25.30;;;;;;;-2.49;97.30;98621.97;4045580;86;21047;-85
2021/12/08 03:53:44;;;;;;;87.57;26.83;;;;;;;-2.51;97.28;98612.09;4051987;86;21112;-85
2021/12/08 03:59:46;;;;;;;82.00;26.60;;;;;;;-2.56;97.34;98603.61;4038247;86;21028;-86
2021/12/08 04:11:53;;;;;;;82.03;27.03;;;;;;;-2.61;97.50;98586.82;4046553;86;21083;-85
2021/12/08 04:17:55;;;;;;;82.50;25.80;;;;;;;-2.63;97.54;98558.21;4040154;86;21126;-87
2021/12/08 04:23:56;;;;;;;79.23;24.63;;;;;;;-2.65;97.60;98557.71;4031257;86;21059;-85
2021/12/08 04:29:58;;;;;;;79.17;24.63;;;;;;;-2.65;97.58;98559.05;4037677;86;21096;-86
2021/12/08 04:36:00;;;;;;;77.17;23.70;;;;;;;-2.62;97.56;98555.77;4048562;86;21559;-87
2021/12/08 04:42:07;;;;;;;96.80;28.37;;;;;;;-2.61;97.56;98561.36;4043211;86;22162;-87
2021/12/08 04:48:17;;;;;;;82.33;27.73;;;;;;;-2.60;97.59;98575.03;4052976;85;21083;-85
2021/12/08 05:07:13;;;;;;;77.83;25.17;;;;;;;-2.68;97.52;98606.54;4040922;86;21097;-86
2021/12/08 05:13:07;;;;;;;78.00;24.77;;;;;;;-2.69;97.52;98610.32;4032414;86;21052;-87
2021/12/08 05:19:12;;;;;;;72.80;25.45;;;;;;;-2.73;97.49;98614.13;4050257;86;22335;-86
2021/12/08 05:25:19;;;;;;;72.85;26.57;;;;;;;-2.75;97.51;98612.29;4037283;86;21103;-85
2021/12/08 05:31:26;;;;;;;71.33;23.77;;;;;;;-2.72;97.55;98613.56;3962792;86;31018;-85
2021/12/08 05:37:28;;;;;;;80.13;24.77;;;;;;;-2.76;97.44;98599.19;3924618;89;21076;-86
2021/12/08 05:43:30;;;;;;;71.57;23.60;;;;;;;-2.77;97.45;98597.05;3926683;89;21190;-85
2021/12/08 05:49:32;;;;;;;89.17;29.20;;;;;;;-2.78;97.46;98583.95;3923821;89;21735;-86
2021/12/08 05:55:35;;;;;;;73.40;23.30;;;;;;;-2.80;97.42;98569.52;3928601;89;21596;-86
2021/12/08 06:01:45;;;;;;;70.90;22.37;;;;;;;-2.81;97.43;98563.92;3939624;89;22331;-88
2021/12/08 06:07:47;;;;;;;64.13;21.60;;;;;;;-2.81;97.39;98559.91;3942658;88;21049;-87
2021/12/08 06:13:49;;;;;;;63.67;22.47;;;;;;;-2.79;97.48;98570.32;3944671;89;21120;-87
2021/12/08 06:19:52;;;;;;;66.80;21.90;;;;;;;-2.78;97.45;98570.02;3938560;89;21075;-87
2021/12/08 06:25:54;;;;;;;65.53;22.20;;;;;;;-2.76;97.39;98569.73;3945129;88;21086;-87
2021/12/08 06:32:00;;;;;;;60.00;19.20;;;;;;;-2.75;97.36;98561.92;3940401;89;21075;-87
2021/12/08 06:38:03;;;;;;;60.00;22.98;;;;;;;-2.75;97.24;98552.55;3946142;87;21093;-86
2021/12/08 06:44:13;;;;;;;51.33;17.57;;;;;;;-2.79;97.32;98545.67;3948455;89;21097;-88
2021/12/08 06:50:20;;;;;;;52.37;18.50;;;;;;;-2.77;97.23;98545.37;3934493;89;21104;-86
2021/12/08 06:56:30;;;;;;;45.30;17.43;;;;;;;-2.75;97.16;98539.16;3957333;88;21149;-85
2021/12/08 07:02:51;;;;;;;40.67;17.10;;;;;;;-2.78;97.10;98533.86;3970085;88;21715;-91
2021/12/08 07:08:45;;;;;;;45.47;17.90;;;;;;;-2.77;97.02;98531.98;3961959;88;21069;-87
2021/12/08 07:14:57;;;;;;;46.83;17.20;;;;;;;-2.72;96.93;98531.85;3966377;88;21121;-90
2021/12/08 07:21:02;;;;;;;46.70;18.87;;;;;;;-2.77;96.84;98537.34;3971603;88;21103;-87
2021/12/08 07:27:15;;;;;;;46.67;18.80;;;;;;;-2.72;96.76;98531.31;3969128;88;21161;-87
2021/12/08 07:33:17;;;;;;;49.23;18.53;;;;;;;-2.68;96.80;98535.00;3964302;88;21514;-88
2021/12/08 07:39:26;;;;;;;40.70;16.40;;;;;;;-2.65;96.59;98530.92;3963525;88;21042;-87
2021/12/08 07:45:36;;;;;;;47.33;17.53;;;;;;;-2.63;96.53;98534.09;3973108;88;21121;-88
2021/12/08 07:51:49;;;;;;;46.90;19.83;;;;;;;-2.65;96.21;98525.02;3967811;88;21188;-86
2021/12/08 07:57:52;;;;;;;52.57;19.30;;;;;;;-2.63;96.32;98516.68;3945686;88;21077;-87
2021/12/08 08:03:54;;;;;;;55.13;18.67;;;;;;;-2.63;96.23;98537.55;3937212;88;21152;-87
2021/12/08 08:10:01;;;;;;;49.10;18.40;;;;;;;-2.65;96.20;98549.67;3941276;88;21945;-86
2021/12/08 08:16:08;;;;;;;54.73;19.30;;;;;;;-2.65;96.19;98549.14;3935109;89;21100;-88
2021/12/08 08:22:16;;;;;;;58.20;20.70;;;;;;;-2.63;95.98;98536.77;3936220;89;21517;-86
2021/12/08 08:28:18;;;;;;;52.10;19.40;;;;;;;-2.57;96.12;98537.72;3939737;88;21153;-87
2021/12/08 08:34:20;;;;;;;54.70;20.40;;;;;;;-2.56;95.83;98557.24;3937780;89;21014;-87
2021/12/08 08:40:32;;;;;;;57.43;20.03;;;;;;;-2.50;95.85;98562.73;3940649;89;21081;-88
2021/12/08 08:46:39;;;;;;;62.03;21.67;;;;;;;-2.50;95.71;98565.42;3922919;89;21103;-85
2021/12/08 08:52:46;;;;;;;57.90;21.80;;;;;;;-2.45;95.89;98551.92;3931988;88;21055;-86
2021/12/08 08:58:53;;;;;;;48.07;17.83;;;;;;;-2.37;95.61;98553.35;3921876;89;21154;-88
2021/12/08 09:05:00;;;;;;;46.27;20.17;;;;;;;-2.38;95.24;98563.03;3939248;89;21090;-87
2021/12/08 09:11:15;;;;;;;51.63;20.63;;;;;;;-2.39;95.48;98551.52;3940310;89;21118;-86
2021/12/08 09:17:27;;;;;;;52.07;21.50;;;;;;;-2.37;95.23;98545.31;3937303;89;21058;-87
2021/12/08 09:23:37;;;;;;;48.03;20.43;;;;;;;-2.40;95.11;98545.91;3929789;89;21418;-87
2021/12/08 09:29:45;;;;;;;45.03;18.70;;;;;;;-2.44;94.96;98530.17;3944222;88;21102;-87
2021/12/08 09:35:55;;;;;;;47.17;18.07;;;;;;;-2.42;95.00;98532.02;3943412;88;21699;-86
2021/12/08 09:42:12;;;;;;;47.47;19.13;;;;;;;-2.44;94.68;98531.52;3941637;89;21715;-87
2021/12/08 09:48:15;;;;;;;39.38;15.35;;;;;;;-2.41;94.84;98522.87;3947993;89;21130;-86
2021/12/08 09:54:16;;;;;;;38.80;16.40;;;;;;;-2.39;94.53;98515.33;3944107;89;21102;-85
2021/12/08 10:00:47;;;;;;;36.87;16.50;;;;;;;-2.37;94.67;98529.77;4014643;87;21069;-85
2021/12/08 10:06:50;;;;;;;41.13;17.03;;;;;;;-2.34;94.54;98518.44;4083817;85;21125;-83
2021/12/08 10:12:51;;;;;;;40.30;16.50;;;;;;;-2.32;94.50;98517.59;3985330;86;21171;-83
2021/12/08 10:18:55;;;;;;;36.43;16.43;;;;;;;-2.34;94.32;98514.41;3986834;87;21089;-83
2021/12/08 10:25:17;;;;;;;41.83;18.13;;;;;;;-2.31;94.45;98505.77;3996177;87;21109;-83
2021/12/08 10:31:30;;;;;;;38.43;15.90;;;;;;;-2.23;94.01;98492.44;3994058;87;21069;-84
2021/12/08 10:37:30;;;;;;;40.37;15.83;;;;;;;-2.24;94.09;98495.42;3998713;87;21565;-83
2021/12/08 10:43:31;;;;;;;41.83;16.63;;;;;;;-2.17;94.18;98490.42;3996056;87;21189;-83
2021/12/08 10:55:47;;;;;;;43.03;17.57;;;;;;;-2.16;94.01;98475.94;3991303;87;21086;-82
2021/12/08 11:01:49;;;;;;;44.17;16.67;;;;;;;-2.14;93.88;98460.31;3992842;87;21597;-83
2021/12/08 11:08:16;;;;;;;43.77;18.70;;;;;;;-2.12;93.96;98460.27;4057493;86;21520;-83
2021/12/08 11:14:17;;;;;;;45.33;18.97;;;;;;;-2.11;93.66;98461.04;4055953;86;21112;-83
2021/12/08 11:20:30;;;;;;;44.20;17.70;;;;;;;-2.13;93.55;98446.59;4053276;86;21071;-83
2021/12/08 11:26:41;;;;;;;42.97;17.60;;;;;;;-2.15;93.65;98438.09;4055253;86;21062;-83
2021/12/08 11:32:43;;;;;;;38.43;16.77;;;;;;;-2.16;93.57;98433.80;4056652;86;21046;-83
2021/12/08 11:38:49;;;;;;;43.73;17.83;;;;;;;-2.13;93.46;98431.08;4028116;86;21550;-84
2021/12/08 11:44:54;;;;;;;42.25;16.80;;;;;;;-2.14;93.57;98428.13;4061971;86;21060;-83
2021/12/08 11:51:10;;;;;;;41.13;17.20;;;;;;;-2.05;93.50;98423.06;4056386;86;21070;-84
2021/12/08 11:57:20;;;;;;;28.43;12.10;;;;;;;-2.03;93.45;98425.44;4050844;86;21031;-83
2021/12/08 12:03:21;;;;;;;36.77;16.90;;;;;;;-2.06;93.27;98424.72;4069643;85;21023;-83
2021/12/08 12:09:22;;;;;;;36.80;16.53;;;;;;;-2.12;93.24;98418.70;4114550;85;22227;-82
2021/12/08 12:15:25;;;;;;;39.60;16.23;;;;;;;-2.14;93.26;98419.55;4106980;85;21647;-82
2021/12/08 12:22:07;;;;;;;36.13;16.93;;;;;;;-2.14;93.28;98406.68;4112084;85;22324;-83
2021/12/08 12:35:33;;;;;;;35.03;15.97;;;;;;;-2.17;93.08;98391.20;4199109;83;21134;-83
2021/12/08 12:41:34;;;;;;;32.93;15.27;;;;;;;-2.20;93.15;98400.66;4205300;82;21499;-83
2021/12/08 12:47:36;;;;;;;31.50;15.17;;;;;;;-2.19;92.89;98396.88;4206671;83;21073;-83
2021/12/08 12:53:54;;;;;;;31.07;14.10;;;;;;;-2.26;92.73;98403.23;4196434;83;22191;-82
2021/12/08 12:59:55;;;;;;;28.27;13.53;;;;;;;-2.27;92.64;98403.55;4182582;83;50798;-81
2021/12/08 13:05:58;;;;;;;33.23;13.43;;;;;;;-2.28;92.68;98396.03;4052077;86;21118;-84
2021/12/08 13:12:21;;;;;;;24.53;11.87;;;;;;;-2.32;92.23;98386.23;4046304;86;21084;-83
2021/12/08 13:18:27;;;;;;;24.00;11.70;;;;;;;-2.30;92.63;98372.75;4046141;86;21116;-84
2021/12/08 13:24:42;;;;;;;24.07;11.93;;;;;;;-2.28;92.35;98375.13;4050884;85;21092;-83
2021/12/08 13:30:58;;;;;;;26.83;11.73;;;;;;;-2.32;92.37;98376.28;4039109;86;21063;-83
2021/12/08 13:37:22;;;;;;;26.15;11.95;;;;;;;-2.50;91.95;98353.70;4014072;86;21675;-83
2021/12/08 13:43:40;;;;;;;26.90;12.80;;;;;;;-2.50;91.95;98353.70;4021684;86;21135;-82
2021/12/08 13:49:59;;;;;;;24.90;11.53;;;;;;;-2.50;92.16;98377.28;4022847;86;21140;-84
2021/12/08 13:56:01;;;;;;;33.67;14.53;;;;;;;-2.53;92.30;98383.79;4018175;86;21088;-84
2021/12/08 14:02:25;;;;;;;41.70;15.27;;;;;;;-2.48;92.08;98393.86;4017017;86;21051;-82
2021/12/08 14:08:35;;;;;;;27.70;13.13;;;;;;;-2.50;92.24;98403.28;4026962;86;21079;-82
2021/12/08 14:14:36;;;;;;;47.63;17.37;;;;;;;-2.53;92.05;98410.05;4027416;86;21072;-83
2021/12/08 14:20:39;;;;;;;33.67;14.60;;;;;;;-2.54;92.20;98411.70;4031051;85;21071;-82
2021/12/08 14:26:41;;;;;;;31.07;14.47;;;;;;;-2.55;91.93;98405.53;4032051;86;21057;-83
2021/12/08 14:32:42;;;;;;;27.30;13.20;;;;;;;-2.63;92.10;98411.61;4032680;86;21063;-82
2021/12/08 14:38:52;;;;;;;27.97;13.73;;;;;;;-2.64;92.34;98399.32;4033341;86;21057;-83
2021/12/08 14:44:57;;;;;;;33.50;14.50;;;;;;;-2.63;92.10;98389.41;4036115;86;20992;-83
2021/12/08 14:50:58;;;;;;;30.20;12.47;;;;;;;-2.66;92.17;98395.38;4034740;86;21143;-82
2021/12/08 14:57:23;;;;;;;24.77;13.03;;;;;;;-2.67;92.16;98377.16;4033797;86;21080;-83
2021/12/08 15:03:24;;;;;;;37.83;17.27;;;;;;;-2.73;92.28;98377.03;4031914;86;21069;-82
2021/12/08 15:09:28;;;;;;;28.93;14.13;;;;;;;-2.66;92.45;98380.07;4029992;86;21098;-82
2021/12/08 15:15:32;;;;;;;27.20;13.20;;;;;;;-2.66;92.15;98377.39;4033177;86;22023;-82
2021/12/08 15:21:40;;;;;;;29.60;14.70;;;;;;;-2.66;92.11;98375.28;4025117;86;21112;-81
2021/12/08 15:27:42;;;;;;;36.90;16.17;;;;;;;-2.73;92.18;98366.86;4026847;86;22136;-82
2021/12/08 15:33:47;;;;;;;32.73;14.50;;;;;;;-2.75;92.12;98369.84;4054174;86;21099;-83
2021/12/08 15:39:52;;;;;;;35.20;15.63;;;;;;;-2.83;92.09;98367.88;4060642;86;21035;-82
2021/12/08 15:45:55;;;;;;;37.00;16.03;;;;;;;-2.85;92.23;98384.02;3994810;87;42164;-83
2021/12/08 15:52:17;;;;;;;42.63;20.13;;;;;;;-2.86;92.16;98380.55;3985335;87;21029;-82
2021/12/08 15:58:15;;;;;;;38.43;17.47;;;;;;;-2.90;92.22;98374.76;4001235;83;37128;-82
2021/12/08 16:04:19;;;;;;;36.47;16.93;;;;;;;-2.91;92.30;98375.30;3913421;89;21060;-82
2021/12/08 16:10:30;;;;;;;38.40;16.57;;;;;;;-2.89;92.23;98377.67;3916034;89;21096;-81
2021/12/08 16:16:32;;;;;;;43.63;19.10;;;;;;;-2.89;92.35;98377.67;4008065;87;21110;-81
2021/12/08 16:22:34;;;;;;;37.93;18.17;;;;;;;-2.89;92.27;98382.48;4011284;88;21069;-82
2021/12/08 16:28:39;;;;;;;39.43;17.30;;;;;;;-2.92;92.31;98384.97;3910697;89;21073;-81
2021/12/08 16:34:40;;;;;;;33.23;16.07;;;;;;;-2.96;92.21;98386.11;4009191;87;21076;-81
2021/12/08 16:46:44;;;;;;;38.03;16.80;;;;;;;-3.01;92.28;98381.44;4055026;86;21581;-81
2021/12/08 16:52:46;;;;;;;37.07;17.60;;;;;;;-3.06;92.29;98375.64;4069241;85;21101;-81
2021/12/08 16:58:47;;;;;;;33.77;16.87;;;;;;;-3.07;92.27;98376.75;4074962;86;21080;-81
2021/12/08 17:04:49;;;;;;;32.60;15.40;;;;;;;-3.10;92.34;98373.88;4069767;85;21051;-80
2021/12/08 17:10:52;;;;;;;33.87;16.13;;;;;;;-3.14;92.29;98372.88;4076540;86;21085;-81
2021/12/08 17:16:53;;;;;;;32.57;14.70;;;;;;;-3.13;92.34;98376.59;4082598;86;21557;-81
2021/12/08 17:22:55;;;;;;;39.03;17.83;;;;;;;-3.12;92.49;98379.53;4085306;86;21005;-80
2021/12/08 17:28:56;;;;;;;50.40;23.30;;;;;;;-3.13;92.39;98379.27;4070724;85;21084;-80
2021/12/08 17:34:57;;;;;;;48.07;20.60;;;;;;;-3.14;92.40;98372.88;4050043;86;21357;-81
2021/12/08 17:41:00;;;;;;;54.17;23.17;;;;;;;-3.16;92.41;98365.72;4029564;86;21088;-80
2021/12/08 17:47:03;;;;;;;44.30;21.13;;;;;;;-3.19;92.34;98363.08;4004037;86;21222;-80
2021/12/08 17:53:06;;;;;;;36.40;15.87;;;;;;;-3.19;92.37;98378.36;4020063;86;21045;-80
2021/12/08 17:59:10;;;;;;;44.10;17.33;;;;;;;-3.22;92.39;98371.70;4007880;87;21058;-79
2021/12/08 18:05:12;;;;;;;42.30;18.60;;;;;;;-3.18;92.46;98382.61;3892641;86;10000099;-80
2021/12/08 18:11:13;;;;;;;42.03;18.47;;;;;;;-3.24;92.34;98376.02;3937736;89;21153;-80
2021/12/08 18:17:15;;;;;;;48.67;21.77;;;;;;;-3.22;92.52;98363.67;3952182;88;21072;-81
2021/12/08 18:23:17;;;;;;;42.53;19.40;;;;;;;-3.20;92.48;98361.50;3955797;88;21628;-81
2021/12/08 18:29:21;;;;;;;54.90;21.80;;;;;;;-3.20;92.56;98349.45;4023942;87;21083;-80
2021/12/08 18:35:32;;;;;;;50.30;22.00;;;;;;;-3.19;92.41;98354.27;4029363;86;21106;-80
2021/12/08 18:41:33;;;;;;;48.47;22.10;;;;;;;-3.22;92.44;98346.28;4057710;86;21513;-80
2021/12/08 18:47:34;;;;;;;52.73;22.93;;;;;;;-3.27;92.52;98335.67;4071403;86;21033;-80
2021/12/08 18:53:39;;;;;;;54.03;23.17;;;;;;;-3.29;92.60;98333.30;4067319;86;21053;-79
2021/12/08 18:59:42;;;;;;;56.20;23.57;;;;;;;-3.29;92.55;98325.27;4071262;85;21616;-80
2021/12/08 19:05:44;;;;;;;47.20;22.63;;;;;;;-3.36;92.69;98327.58;4065072;85;21177;-80
2021/12/08 19:11:45;;;;;;;48.73;20.67;;;;;;;-3.34;92.75;98319.25;4042733;86;21889;-79
2021/12/08 19:17:47;;;;;;;49.93;20.90;;;;;;;-3.39;92.75;98326.84;4063775;86;21129;-80
2021/12/08 19:23:48;;;;;;;46.20;20.03;;;;;;;-3.40;92.84;98312.43;4060367;85;21066;-79
2021/12/08 19:29:50;;;;;;;48.33;20.13;;;;;;;-3.44;92.82;98320.26;4042141;86;21098;-80
2021/12/08 19:35:56;;;;;;;46.40;21.67;;;;;;;-3.41;92.90;98316.17;3948916;85;9999963;-79
2021/12/08 19:41:54;;;;;;;49.43;21.47;;;;;;;-3.47;92.94;98322.20;3972635;87;21253;-80
2021/12/08 19:47:58;;;;;;;59.27;24.03;;;;;;;-3.44;93.11;98316.78;3976784;88;21574;-79
2021/12/08 19:53:59;;;;;;;51.00;24.07;;;;;;;-3.42;93.07;98313.27;4059039;86;21061;-79
2021/12/08 20:00:05;;;;;;;51.97;25.57;;;;;;;-3.40;93.06;98306.51;4069302;86;21054;-79
2021/12/08 20:06:07;;;;;;;48.35;24.12;;;;;;;-3.43;93.04;98306.34;4068663;86;21447;-79
2021/12/08 20:12:10;;;;;;;55.43;22.83;;;;;;;-3.46;93.10;98301.59;4067317;85;21050;-79
2021/12/08 20:18:15;;;;;;;58.47;25.53;;;;;;;-3.49;93.23;98300.30;4058230;85;20997;-79
2021/12/08 20:24:16;;;;;;;48.57;19.73;;;;;;;-3.45;93.27;98297.28;3972872;87;21001;-78
2021/12/08 20:30:20;;;;;;;61.93;26.67;;;;;;;-3.46;93.23;98290.89;3965912;87;21085;-79
2021/12/08 20:36:28;;;;;;;57.20;23.60;;;;;;;-3.48;93.36;98287.15;3829780;89;9999706;-79
2021/12/08 20:42:30;;;;;;;45.43;22.40;;;;;;;-3.43;93.39;98288.95;3940552;88;21050;-79
2021/12/08 20:48:31;;;;;;;48.03;20.97;;;;;;;-3.46;93.36;98282.30;3937499;89;20986;-79
2021/12/08 20:54:35;;;;;;;51.23;22.40;;;;;;;-3.47;93.52;98276.71;3940076;88;21075;-79
2021/12/08 21:00:48;;;;;;;48.50;21.83;;;;;;;-3.47;93.51;98279.39;4036917;87;21046;-78
2021/12/08 21:06:48;;;;;;;52.37;21.87;;;;;;;-3.52;93.61;98277.35;4021590;87;21013;-81
2021/12/08 21:12:52;;;;;;;50.80;22.20;;;;;;;-3.54;93.61;98284.34;4025502;86;21050;-78
2021/12/08 21:18:54;;;;;;;47.83;22.23;;;;;;;-3.50;93.69;98279.99;4028492;87;21049;-79
2021/12/08 21:24:55;;;;;;;51.20;22.57;;;;;;;-3.48;93.70;98275.11;4027956;87;21032;-80
2021/12/08 21:30:57;;;;;;;52.20;20.50;;;;;;;-3.47;93.79;98271.36;3944514;88;22190;-79
2021/12/08 21:36:59;;;;;;;51.90;22.50;;;;;;;-3.47;93.80;98264.67;3976531;87;21105;-79
2021/12/08 21:43:01;;;;;;;46.17;21.57;;;;;;;-3.46;93.89;98266.81;3941263;88;21438;-79
2021/12/08 21:49:05;;;;;;;47.73;21.70;;;;;;;-3.47;93.96;98263.87;3977799;88;21140;-80
2021/12/08 21:55:10;;;;;;;44.17;19.97;;;;;;;-3.50;94.03;98251.90;3983214;88;21097;-79
2021/12/08 22:01:15;;;;;;;45.77;20.97;;;;;;;-3.50;94.06;98253.23;3987407;87;21515;-80
2021/12/08 22:07:16;;;;;;;46.20;20.47;;;;;;;-3.50;94.08;98251.09;3978999;88;22283;-80
2021/12/08 22:13:18;;;;;;;48.60;22.40;;;;;;;-3.54;94.17;98250.13;3987825;88;21065;-80
2021/12/08 22:19:19;;;;;;;64.80;27.33;;;;;;;-3.50;94.24;98256.45;3987914;88;21898;-79
2021/12/08 22:25:21;;;;;;;55.53;21.70;;;;;;;-3.46;94.24;98252.09;3979603;88;21515;-79
2021/12/08 22:31:22;;;;;;;53.47;22.80;;;;;;;-3.44;94.25;98244.00;3974223;88;21150;-79
2021/12/08 22:37:24;;;;;;;52.67;22.50;;;;;;;-3.42;94.26;98243.69;4004900;88;21070;-79
2021/12/08 22:43:27;;;;;;;60.70;25.03;;;;;;;-3.40;94.27;98244.97;4003865;88;21101;-80
2021/12/08 22:49:30;;;;;;;58.40;24.77;;;;;;;-3.42;94.32;98241.82;3903274;89;21038;-79
2021/12/08 22:55:32;;;;;;;58.73;23.77;;;;;;;-3.39;94.33;98239.87;4072495;86;22310;-79
2021/12/08 23:01:36;;;;;;;48.87;23.07;;;;;;;-3.37;94.36;98249.70;4064851;86;21050;-80
2021/12/08 23:08:24;;;;;;;63.17;25.50;;;;;;;-3.35;94.28;98259.57;4080976;85;21119;-79
2021/12/08 23:14:28;;;;;;;54.70;24.37;;;;;;;-3.37;94.32;98263.66;4021039;88;21076;-80
2021/12/08 23:20:34;;;;;;;50.10;21.07;;;;;;;-3.33;94.51;98265.96;4075393;85;21116;-79
2021/12/08 23:26:36;;;;;;;55.23;23.47;;;;;;;-3.34;94.36;98265.19;4073115;85;21109;-80
2021/12/08 23:32:38;;;;;;;54.90;24.47;;;;;;;-3.33;94.41;98257.93;4063986;85;21084;-79
2021/12/08 23:44:46;;;;;;;59.47;24.27;;;;;;;-3.30;94.35;98258.66;4036200;86;21556;-79
2021/12/08 23:50:48;;;;;;;53.57;22.90;;;;;;;-3.27;94.46;98243.33;4033311;86;21108;-79
2021/12/08 23:56:50;;;;;;;56.00;23.43;;;;;;;-3.26;94.44;98246.27;3934268;89;21077;-79
